sensor_id;sensor_type;location;lat;lon;timestamp;P1;durP1;ratioP1;P2;durP2;ratioP2
48613;SDS011;34408;51.426;5.444;2023-03-14T00:01:13;8.00;;;2.22;;
48613;SDS011;34408;51.426;5.444;2023-03-14T00:03:43;4.82;;;1.80;;
48613;SDS011;34408;51.426;5.444;2023-03-14T00:06:12;3.75;;;1.52;;
48613;SDS011;34408;51.426;5.444;2023-03-14T00:08:41;4.40;;;1.65;;
48613;SDS011;34408;51.426;5.444;2023-03-14T00:11:11;6.22;;;1.70;;
48613;SDS011;34408;51.426;5.444;2023-03-14T00:13:40;8.23;;;2.42;;
48613;SDS011;34408;51.426;5.444;2023-03-14T00:16:08;6.85;;;1.77;;
48613;SDS011;34408;51.426;5.444;2023-03-14T00:18:38;5.93;;;1.83;;
48613;SDS011;34408;51.426;5.444;2023-03-14T00:21:07;6.05;;;1.60;;
48613;SDS011;34408;51.426;5.444;2023-03-14T00:23:38;7.22;;;1.92;;
48613;SDS011;34408;51.426;5.444;2023-03-14T00:26:08;6.88;;;1.90;;
48613;SDS011;34408;51.426;5.444;2023-03-14T00:28:37;5.07;;;1.63;;
48613;SDS011;34408;51.426;5.444;2023-03-14T00:31:05;9.00;;;2.08;;
48613;SDS011;34408;51.426;5.444;2023-03-14T00:33:34;6.82;;;1.75;;
48613;SDS011;34408;51.426;5.444;2023-03-14T00:36:04;5.38;;;2.03;;
48613;SDS011;34408;51.426;5.444;2023-03-14T00:38:35;8.68;;;1.83;;
48613;SDS011;34408;51.426;5.444;2023-03-14T00:41:05;4.35;;;1.20;;
48613;SDS011;34408;51.426;5.444;2023-03-14T00:43:34;6.18;;;1.90;;
48613;SDS011;34408;51.426;5.444;2023-03-14T00:46:02;8.80;;;2.72;;
48613;SDS011;34408;51.426;5.444;2023-03-14T00:48:31;7.78;;;1.50;;
48613;SDS011;34408;51.426;5.444;2023-03-14T00:50:59;4.05;;;1.33;;
48613;SDS011;34408;51.426;5.444;2023-03-14T00:53:26;7.55;;;1.73;;
48613;SDS011;34408;51.426;5.444;2023-03-14T00:55:54;15.48;;;2.47;;
48613;SDS011;34408;51.426;5.444;2023-03-14T00:58:23;6.68;;;1.63;;
48613;SDS011;34408;51.426;5.444;2023-03-14T01:00:51;5.35;;;1.38;;
48613;SDS011;34408;51.426;5.444;2023-03-14T01:03:19;5.22;;;2.08;;
48613;SDS011;34408;51.426;5.444;2023-03-14T01:05:46;8.48;;;1.70;;
48613;SDS011;34408;51.426;5.444;2023-03-14T01:08:14;7.18;;;1.92;;
48613;SDS011;34408;51.426;5.444;2023-03-14T01:10:42;6.35;;;1.58;;
48613;SDS011;34408;51.426;5.444;2023-03-14T01:13:10;5.70;;;1.63;;
48613;SDS011;34408;51.426;5.444;2023-03-14T01:15:39;9.35;;;2.38;;
48613;SDS011;34408;51.426;5.444;2023-03-14T01:18:06;4.68;;;1.60;;
48613;SDS011;34408;51.426;5.444;2023-03-14T01:20:34;5.50;;;2.00;;
48613;SDS011;34408;51.426;5.444;2023-03-14T01:23:04;5.95;;;1.58;;
48613;SDS011;34408;51.426;5.444;2023-03-14T01:25:32;6.05;;;1.48;;
48613;SDS011;34408;51.426;5.444;2023-03-14T01:27:59;5.40;;;1.60;;
48613;SDS011;34408;51.426;5.444;2023-03-14T01:30:27;5.25;;;1.85;;
48613;SDS011;34408;51.426;5.444;2023-03-14T01:32:56;4.45;;;1.35;;
48613;SDS011;34408;51.426;5.444;2023-03-14T01:35:24;3.78;;;1.42;;
48613;SDS011;34408;51.426;5.444;2023-03-14T01:37:52;5.32;;;1.73;;
48613;SDS011;34408;51.426;5.444;2023-03-14T01:40:20;7.10;;;1.75;;
48613;SDS011;34408;51.426;5.444;2023-03-14T01:42:54;6.07;;;1.52;;
48613;SDS011;34408;51.426;5.444;2023-03-14T01:48:42;5.60;;;1.30;;
48613;SDS011;34408;51.426;5.444;2023-03-14T01:51:16;7.90;;;1.65;;
48613;SDS011;34408;51.426;5.444;2023-03-14T01:53:48;4.63;;;1.85;;
48613;SDS011;34408;51.426;5.444;2023-03-14T01:56:18;9.27;;;2.95;;
48613;SDS011;34408;51.426;5.444;2023-03-14T01:58:47;3.78;;;1.60;;
48613;SDS011;34408;51.426;5.444;2023-03-14T02:01:18;6.15;;;1.90;;
48613;SDS011;34408;51.426;5.444;2023-03-14T02:03:52;5.60;;;2.25;;
48613;SDS011;34408;51.426;5.444;2023-03-14T02:06:22;5.85;;;2.33;;
48613;SDS011;34408;51.426;5.444;2023-03-14T02:08:53;3.55;;;1.80;;
48613;SDS011;34408;51.426;5.444;2023-03-14T02:11:22;7.80;;;2.38;;
48613;SDS011;34408;51.426;5.444;2023-03-14T02:13:56;9.95;;;2.55;;
48613;SDS011;34408;51.426;5.444;2023-03-14T02:16:26;8.25;;;1.90;;
48613;SDS011;34408;51.426;5.444;2023-03-14T02:18:55;8.85;;;2.30;;
48613;SDS011;34408;51.426;5.444;2023-03-14T02:21:23;5.30;;;1.65;;
48613;SDS011;34408;51.426;5.444;2023-03-14T02:24:05;6.60;;;1.55;;
48613;SDS011;34408;51.426;5.444;2023-03-14T02:26:38;5.97;;;1.52;;
48613;SDS011;34408;51.426;5.444;2023-03-14T02:29:10;6.78;;;3.10;;
48613;SDS011;34408;51.426;5.444;2023-03-14T02:31:38;4.85;;;1.60;;
48613;SDS011;34408;51.426;5.444;2023-03-14T02:34:06;6.95;;;1.50;;
48613;SDS011;34408;51.426;5.444;2023-03-14T02:36:34;4.40;;;1.50;;
48613;SDS011;34408;51.426;5.444;2023-03-14T02:39:05;4.78;;;1.50;;
48613;SDS011;34408;51.426;5.444;2023-03-14T02:41:38;4.72;;;1.70;;
48613;SDS011;34408;51.426;5.444;2023-03-14T02:44:06;5.40;;;1.55;;
48613;SDS011;34408;51.426;5.444;2023-03-14T02:46:35;7.82;;;1.60;;
48613;SDS011;34408;51.426;5.444;2023-03-14T02:49:03;7.63;;;1.90;;
48613;SDS011;34408;51.426;5.444;2023-03-14T02:51:34;7.57;;;1.73;;
48613;SDS011;34408;51.426;5.444;2023-03-14T02:54:03;6.43;;;2.10;;
48613;SDS011;34408;51.426;5.444;2023-03-14T02:56:31;6.32;;;1.42;;
48613;SDS011;34408;51.426;5.444;2023-03-14T02:58:58;6.70;;;1.52;;
48613;SDS011;34408;51.426;5.444;2023-03-14T03:01:29;5.10;;;1.63;;
48613;SDS011;34408;51.426;5.444;2023-03-14T03:03:58;8.00;;;2.50;;
48613;SDS011;34408;51.426;5.444;2023-03-14T03:06:26;4.72;;;1.33;;
48613;SDS011;34408;51.426;5.444;2023-03-14T03:08:54;5.25;;;1.63;;
48613;SDS011;34408;51.426;5.444;2023-03-14T03:11:21;5.85;;;1.65;;
48613;SDS011;34408;51.426;5.444;2023-03-14T03:13:49;8.05;;;2.00;;
48613;SDS011;34408;51.426;5.444;2023-03-14T03:16:17;4.75;;;1.38;;
48613;SDS011;34408;51.426;5.444;2023-03-14T03:18:45;7.60;;;1.98;;
48613;SDS011;34408;51.426;5.444;2023-03-14T03:21:14;7.50;;;2.47;;
48613;SDS011;34408;51.426;5.444;2023-03-14T03:23:42;6.90;;;2.42;;
48613;SDS011;34408;51.426;5.444;2023-03-14T03:26:09;7.25;;;1.67;;
48613;SDS011;34408;51.426;5.444;2023-03-14T03:28:37;5.60;;;1.70;;
48613;SDS011;34408;51.426;5.444;2023-03-14T03:31:08;9.35;;;2.58;;
48613;SDS011;34408;51.426;5.444;2023-03-14T03:33:37;5.20;;;1.90;;
48613;SDS011;34408;51.426;5.444;2023-03-14T03:36:05;7.55;;;1.92;;
48613;SDS011;34408;51.426;5.444;2023-03-14T03:38:35;7.57;;;1.90;;
48613;SDS011;34408;51.426;5.444;2023-03-14T03:41:04;5.90;;;2.00;;
48613;SDS011;34408;51.426;5.444;2023-03-14T03:43:32;5.35;;;1.63;;
48613;SDS011;34408;51.426;5.444;2023-03-14T03:46:02;7.32;;;2.05;;
48613;SDS011;34408;51.426;5.444;2023-03-14T03:48:30;6.43;;;1.90;;
48613;SDS011;34408;51.426;5.444;2023-03-14T03:50:58;9.40;;;2.28;;
48613;SDS011;34408;51.426;5.444;2023-03-14T03:53:26;8.88;;;1.80;;
48613;SDS011;34408;51.426;5.444;2023-03-14T03:56:00;7.05;;;1.90;;
48613;SDS011;34408;51.426;5.444;2023-03-14T03:58:28;9.13;;;1.85;;
48613;SDS011;34408;51.426;5.444;2023-03-14T04:00:56;7.03;;;1.55;;
48613;SDS011;34408;51.426;5.444;2023-03-14T04:03:24;6.22;;;1.65;;
48613;SDS011;34408;51.426;5.444;2023-03-14T04:05:57;8.35;;;1.77;;
48613;SDS011;34408;51.426;5.444;2023-03-14T04:08:26;5.45;;;1.55;;
48613;SDS011;34408;51.426;5.444;2023-03-14T04:10:54;6.15;;;1.92;;
48613;SDS011;34408;51.426;5.444;2023-03-14T04:13:25;4.38;;;1.58;;
48613;SDS011;34408;51.426;5.444;2023-03-14T04:15:54;3.53;;;1.40;;
48613;SDS011;34408;51.426;5.444;2023-03-14T04:18:23;3.50;;;1.35;;
48613;SDS011;34408;51.426;5.444;2023-03-14T04:20:52;7.90;;;1.98;;
48613;SDS011;34408;51.426;5.444;2023-03-14T04:23:20;6.65;;;2.28;;
48613;SDS011;34408;51.426;5.444;2023-03-14T04:25:50;6.97;;;1.17;;
48613;SDS011;34408;51.426;5.444;2023-03-14T04:28:18;6.43;;;1.65;;
48613;SDS011;34408;51.426;5.444;2023-03-14T04:30:48;3.95;;;1.20;;
48613;SDS011;34408;51.426;5.444;2023-03-14T04:33:16;4.63;;;1.40;;
48613;SDS011;34408;51.426;5.444;2023-03-14T04:35:44;4.05;;;1.83;;
48613;SDS011;34408;51.426;5.444;2023-03-14T04:38:12;2.97;;;1.08;;
48613;SDS011;34408;51.426;5.444;2023-03-14T04:40:40;4.30;;;1.10;;
48613;SDS011;34408;51.426;5.444;2023-03-14T04:43:09;2.28;;;0.95;;
48613;SDS011;34408;51.426;5.444;2023-03-14T04:45:39;6.22;;;1.52;;
48613;SDS011;34408;51.426;5.444;2023-03-14T04:48:10;4.15;;;1.10;;
48613;SDS011;34408;51.426;5.444;2023-03-14T04:50:38;3.55;;;1.00;;
48613;SDS011;34408;51.426;5.444;2023-03-14T04:53:06;3.67;;;1.42;;
48613;SDS011;34408;51.426;5.444;2023-03-14T04:55:34;3.22;;;1.50;;
48613;SDS011;34408;51.426;5.444;2023-03-14T04:58:02;5.70;;;1.42;;
48613;SDS011;34408;51.426;5.444;2023-03-14T05:00:30;5.68;;;1.60;;
48613;SDS011;34408;51.426;5.444;2023-03-14T05:02:58;3.80;;;1.38;;
48613;SDS011;34408;51.426;5.444;2023-03-14T05:05:27;2.53;;;1.50;;
48613;SDS011;34408;51.426;5.444;2023-03-14T05:07:55;5.63;;;1.35;;
48613;SDS011;34408;51.426;5.444;2023-03-14T05:10:22;4.03;;;1.20;;
48613;SDS011;34408;51.426;5.444;2023-03-14T05:12:51;3.40;;;1.45;;
48613;SDS011;34408;51.426;5.444;2023-03-14T05:15:19;2.33;;;1.00;;
48613;SDS011;34408;51.426;5.444;2023-03-14T05:17:47;3.83;;;1.13;;
48613;SDS011;34408;51.426;5.444;2023-03-14T05:20:15;3.40;;;1.23;;
48613;SDS011;34408;51.426;5.444;2023-03-14T05:22:44;3.20;;;0.98;;
48613;SDS011;34408;51.426;5.444;2023-03-14T05:25:12;2.55;;;1.10;;
48613;SDS011;34408;51.426;5.444;2023-03-14T05:27:40;7.07;;;1.83;;
48613;SDS011;34408;51.426;5.444;2023-03-14T05:30:08;3.83;;;1.45;;
48613;SDS011;34408;51.426;5.444;2023-03-14T05:32:36;4.82;;;1.92;;
48613;SDS011;34408;51.426;5.444;2023-03-14T05:35:04;4.55;;;1.35;;
48613;SDS011;34408;51.426;5.444;2023-03-14T05:37:32;3.53;;;1.30;;
48613;SDS011;34408;51.426;5.444;2023-03-14T05:40:02;3.90;;;1.65;;
48613;SDS011;34408;51.426;5.444;2023-03-14T05:42:32;3.72;;;1.10;;
48613;SDS011;34408;51.426;5.444;2023-03-14T05:45:00;3.53;;;1.30;;
48613;SDS011;34408;51.426;5.444;2023-03-14T05:47:28;5.55;;;1.30;;
48613;SDS011;34408;51.426;5.444;2023-03-14T05:49:55;6.93;;;1.50;;
48613;SDS011;34408;51.426;5.444;2023-03-14T05:52:23;2.92;;;1.10;;
48613;SDS011;34408;51.426;5.444;2023-03-14T05:54:51;6.90;;;1.52;;
48613;SDS011;34408;51.426;5.444;2023-03-14T05:57:20;4.13;;;1.35;;
48613;SDS011;34408;51.426;5.444;2023-03-14T05:59:48;5.35;;;1.50;;
48613;SDS011;34408;51.426;5.444;2023-03-14T06:02:15;3.63;;;1.17;;
48613;SDS011;34408;51.426;5.444;2023-03-14T06:04:43;6.63;;;1.85;;
48613;SDS011;34408;51.426;5.444;2023-03-14T06:07:11;3.08;;;1.20;;
48613;SDS011;34408;51.426;5.444;2023-03-14T06:09:39;4.70;;;1.15;;
48613;SDS011;34408;51.426;5.444;2023-03-14T06:12:06;3.45;;;0.95;;
48613;SDS011;34408;51.426;5.444;2023-03-14T06:14:36;4.80;;;1.38;;
48613;SDS011;34408;51.426;5.444;2023-03-14T06:17:03;3.22;;;1.30;;
48613;SDS011;34408;51.426;5.444;2023-03-14T06:19:31;2.75;;;1.17;;
48613;SDS011;34408;51.426;5.444;2023-03-14T06:21:59;2.83;;;1.48;;
48613;SDS011;34408;51.426;5.444;2023-03-14T06:24:28;3.17;;;1.60;;
48613;SDS011;34408;51.426;5.444;2023-03-14T06:26:55;4.00;;;1.45;;
48613;SDS011;34408;51.426;5.444;2023-03-14T06:29:23;3.08;;;1.45;;
48613;SDS011;34408;51.426;5.444;2023-03-14T06:31:52;4.38;;;1.50;;
48613;SDS011;34408;51.426;5.444;2023-03-14T06:34:20;3.53;;;1.35;;
48613;SDS011;34408;51.426;5.444;2023-03-14T06:36:48;8.10;;;2.10;;
48613;SDS011;34408;51.426;5.444;2023-03-14T06:39:16;3.80;;;1.25;;
48613;SDS011;34408;51.426;5.444;2023-03-14T06:41:43;2.85;;;1.48;;
48613;SDS011;34408;51.426;5.444;2023-03-14T06:44:11;3.33;;;1.33;;
48613;SDS011;34408;51.426;5.444;2023-03-14T06:46:39;1.92;;;1.05;;
48613;SDS011;34408;51.426;5.444;2023-03-14T06:49:08;4.60;;;2.22;;
48613;SDS011;34408;51.426;5.444;2023-03-14T06:51:36;2.33;;;1.20;;
48613;SDS011;34408;51.426;5.444;2023-03-14T06:54:03;1.90;;;1.20;;
48613;SDS011;34408;51.426;5.444;2023-03-14T06:56:31;3.30;;;1.30;;
48613;SDS011;34408;51.426;5.444;2023-03-14T06:58:59;7.50;;;1.70;;
48613;SDS011;34408;51.426;5.444;2023-03-14T07:01:27;3.63;;;1.50;;
48613;SDS011;34408;51.426;5.444;2023-03-14T07:03:56;3.08;;;1.88;;
48613;SDS011;34408;51.426;5.444;2023-03-14T07:06:26;3.10;;;1.35;;
48613;SDS011;34408;51.426;5.444;2023-03-14T07:08:55;1.83;;;1.10;;
48613;SDS011;34408;51.426;5.444;2023-03-14T07:11:24;4.03;;;1.38;;
48613;SDS011;34408;51.426;5.444;2023-03-14T07:13:52;1.85;;;1.20;;
48613;SDS011;34408;51.426;5.444;2023-03-14T07:16:19;3.35;;;1.60;;
48613;SDS011;34408;51.426;5.444;2023-03-14T07:18:47;3.08;;;1.38;;
48613;SDS011;34408;51.426;5.444;2023-03-14T07:21:16;3.38;;;1.38;;
48613;SDS011;34408;51.426;5.444;2023-03-14T07:23:45;2.75;;;1.40;;
48613;SDS011;34408;51.426;5.444;2023-03-14T07:26:13;3.92;;;1.63;;
48613;SDS011;34408;51.426;5.444;2023-03-14T07:28:41;3.30;;;1.27;;
48613;SDS011;34408;51.426;5.444;2023-03-14T07:31:09;3.38;;;1.58;;
48613;SDS011;34408;51.426;5.444;2023-03-14T07:33:36;5.45;;;2.42;;
48613;SDS011;34408;51.426;5.444;2023-03-14T07:36:05;3.45;;;1.60;;
48613;SDS011;34408;51.426;5.444;2023-03-14T07:38:33;3.03;;;1.25;;
48613;SDS011;34408;51.426;5.444;2023-03-14T07:41:03;4.35;;;1.58;;
48613;SDS011;34408;51.426;5.444;2023-03-14T07:43:32;2.40;;;1.27;;
48613;SDS011;34408;51.426;5.444;2023-03-14T07:46:00;1.48;;;0.90;;
48613;SDS011;34408;51.426;5.444;2023-03-14T07:48:28;0.82;;;0.52;;
48613;SDS011;34408;51.426;5.444;2023-03-14T07:50:56;0.88;;;0.60;;
48613;SDS011;34408;51.426;5.444;2023-03-14T07:53:24;1.88;;;0.70;;
48613;SDS011;34408;51.426;5.444;2023-03-14T07:55:52;2.15;;;0.90;;
48613;SDS011;34408;51.426;5.444;2023-03-14T07:58:22;1.10;;;0.50;;
48613;SDS011;34408;51.426;5.444;2023-03-14T08:00:50;1.42;;;0.63;;
48613;SDS011;34408;51.426;5.444;2023-03-14T08:03:19;3.97;;;1.20;;
48613;SDS011;34408;51.426;5.444;2023-03-14T08:05:47;2.67;;;1.00;;
48613;SDS011;34408;51.426;5.444;2023-03-14T08:08:16;4.13;;;0.82;;
48613;SDS011;34408;51.426;5.444;2023-03-14T08:10:45;1.13;;;0.70;;
48613;SDS011;34408;51.426;5.444;2023-03-14T08:13:13;3.30;;;1.20;;
48613;SDS011;34408;51.426;5.444;2023-03-14T08:15:42;2.17;;;1.13;;
48613;SDS011;34408;51.426;5.444;2023-03-14T08:18:14;1.23;;;0.85;;
48613;SDS011;34408;51.426;5.444;2023-03-14T08:20:42;2.78;;;1.00;;
48613;SDS011;34408;51.426;5.444;2023-03-14T08:23:10;1.90;;;1.00;;
48613;SDS011;34408;51.426;5.444;2023-03-14T08:25:38;1.45;;;0.95;;
48613;SDS011;34408;51.426;5.444;2023-03-14T08:28:06;1.90;;;0.93;;
48613;SDS011;34408;51.426;5.444;2023-03-14T08:30:33;5.95;;;1.23;;
48613;SDS011;34408;51.426;5.444;2023-03-14T08:33:02;3.40;;;1.08;;
48613;SDS011;34408;51.426;5.444;2023-03-14T08:35:30;3.67;;;0.95;;
48613;SDS011;34408;51.426;5.444;2023-03-14T08:37:58;3.40;;;1.00;;
48613;SDS011;34408;51.426;5.444;2023-03-14T08:40:27;2.40;;;1.13;;
48613;SDS011;34408;51.426;5.444;2023-03-14T08:42:54;2.47;;;0.80;;
48613;SDS011;34408;51.426;5.444;2023-03-14T08:45:22;3.80;;;1.15;;
48613;SDS011;34408;51.426;5.444;2023-03-14T08:47:51;4.38;;;0.90;;
48613;SDS011;34408;51.426;5.444;2023-03-14T08:50:20;2.03;;;1.05;;
48613;SDS011;34408;51.426;5.444;2023-03-14T08:52:49;5.13;;;1.10;;
48613;SDS011;34408;51.426;5.444;2023-03-14T08:55:17;4.90;;;1.10;;
48613;SDS011;34408;51.426;5.444;2023-03-14T08:57:45;1.67;;;0.70;;
48613;SDS011;34408;51.426;5.444;2023-03-14T09:00:13;3.42;;;0.95;;
48613;SDS011;34408;51.426;5.444;2023-03-14T09:02:41;2.67;;;1.05;;
48613;SDS011;34408;51.426;5.444;2023-03-14T09:05:10;3.50;;;1.40;;
48613;SDS011;34408;51.426;5.444;2023-03-14T09:07:40;2.63;;;1.00;;
48613;SDS011;34408;51.426;5.444;2023-03-14T09:10:09;2.92;;;0.98;;
48613;SDS011;34408;51.426;5.444;2023-03-14T09:12:37;4.78;;;0.98;;
48613;SDS011;34408;51.426;5.444;2023-03-14T09:15:05;2.10;;;1.08;;
48613;SDS011;34408;51.426;5.444;2023-03-14T09:17:34;5.10;;;1.30;;
48613;SDS011;34408;51.426;5.444;2023-03-14T09:20:02;4.97;;;1.20;;
48613;SDS011;34408;51.426;5.444;2023-03-14T09:22:33;5.25;;;1.48;;
48613;SDS011;34408;51.426;5.444;2023-03-14T09:25:03;3.53;;;1.10;;
48613;SDS011;34408;51.426;5.444;2023-03-14T09:27:32;3.60;;;1.20;;
48613;SDS011;34408;51.426;5.444;2023-03-14T09:29:59;3.05;;;1.35;;
48613;SDS011;34408;51.426;5.444;2023-03-14T09:32:27;1.75;;;0.88;;
48613;SDS011;34408;51.426;5.444;2023-03-14T09:34:55;6.28;;;1.45;;
48613;SDS011;34408;51.426;5.444;2023-03-14T09:37:23;2.97;;;1.13;;
48613;SDS011;34408;51.426;5.444;2023-03-14T09:39:50;2.50;;;1.13;;
48613;SDS011;34408;51.426;5.444;2023-03-14T09:42:20;1.77;;;0.73;;
48613;SDS011;34408;51.426;5.444;2023-03-14T09:44:53;6.97;;;1.08;;
48613;SDS011;34408;51.426;5.444;2023-03-14T09:47:23;3.88;;;0.98;;
48613;SDS011;34408;51.426;5.444;2023-03-14T09:49:52;2.80;;;1.00;;
48613;SDS011;34408;51.426;5.444;2023-03-14T09:52:21;3.10;;;0.70;;
48613;SDS011;34408;51.426;5.444;2023-03-14T09:54:52;4.22;;;0.82;;
48613;SDS011;34408;51.426;5.444;2023-03-14T09:57:26;2.45;;;0.60;;
48613;SDS011;34408;51.426;5.444;2023-03-14T09:59:56;1.95;;;0.50;;
48613;SDS011;34408;51.426;5.444;2023-03-14T10:02:32;2.85;;;1.40;;
48613;SDS011;34408;51.426;5.444;2023-03-14T10:05:04;2.53;;;0.50;;
48613;SDS011;34408;51.426;5.444;2023-03-14T10:07:40;1.80;;;1.00;;
48613;SDS011;34408;51.426;5.444;2023-03-14T10:10:10;5.20;;;0.88;;
48613;SDS011;34408;51.426;5.444;2023-03-14T10:12:44;3.33;;;0.80;;
48613;SDS011;34408;51.426;5.444;2023-03-14T10:15:14;3.03;;;0.70;;
48613;SDS011;34408;51.426;5.444;2023-03-14T10:17:50;4.72;;;0.77;;
48613;SDS011;34408;51.426;5.444;2023-03-14T10:23:06;4.72;;;1.25;;
48613;SDS011;34408;51.426;5.444;2023-03-14T10:25:58;3.50;;;0.80;;
48613;SDS011;34408;51.426;5.444;2023-03-14T10:28:30;2.63;;;0.73;;
48613;SDS011;34408;51.426;5.444;2023-03-14T10:30:59;2.58;;;0.90;;
48613;SDS011;34408;51.426;5.444;2023-03-14T10:33:28;6.93;;;1.02;;
48613;SDS011;34408;51.426;5.444;2023-03-14T10:35:58;1.77;;;1.02;;
48613;SDS011;34408;51.426;5.444;2023-03-14T10:38:28;5.35;;;1.13;;
48613;SDS011;34408;51.426;5.444;2023-03-14T10:40:57;5.30;;;1.63;;
48613;SDS011;34408;51.426;5.444;2023-03-14T10:43:26;3.45;;;0.93;;
48613;SDS011;34408;51.426;5.444;2023-03-14T10:46:00;6.88;;;1.77;;
48613;SDS011;34408;51.426;5.444;2023-03-14T10:48:34;4.32;;;1.25;;
48613;SDS011;34408;51.426;5.444;2023-03-14T10:51:04;3.60;;;1.10;;
48613;SDS011;34408;51.426;5.444;2023-03-14T10:53:34;3.80;;;1.20;;
48613;SDS011;34408;51.426;5.444;2023-03-14T10:56:09;6.57;;;1.33;;
48613;SDS011;34408;51.426;5.444;2023-03-14T10:58:40;4.32;;;1.95;;
48613;SDS011;34408;51.426;5.444;2023-03-14T11:04:08;9.73;;;1.73;;
48613;SDS011;34408;51.426;5.444;2023-03-14T11:06:43;5.68;;;1.35;;
48613;SDS011;34408;51.426;5.444;2023-03-14T11:09:18;6.97;;;1.58;;
48613;SDS011;34408;51.426;5.444;2023-03-14T11:11:54;14.18;;;2.15;;
48613;SDS011;34408;51.426;5.444;2023-03-14T11:14:32;8.98;;;2.50;;
48613;SDS011;34408;51.426;5.444;2023-03-14T11:17:07;11.73;;;2.10;;
48613;SDS011;34408;51.426;5.444;2023-03-14T11:19:48;10.38;;;2.05;;
48613;SDS011;34408;51.426;5.444;2023-03-14T11:22:27;6.28;;;1.75;;
48613;SDS011;34408;51.426;5.444;2023-03-14T11:25:09;12.43;;;1.67;;
48613;SDS011;34408;51.426;5.444;2023-03-14T11:27:46;7.07;;;1.90;;
48613;SDS011;34408;51.426;5.444;2023-03-14T11:30:23;10.73;;;2.13;;
48613;SDS011;34408;51.426;5.444;2023-03-14T11:32:59;12.98;;;4.18;;
48613;SDS011;34408;51.426;5.444;2023-03-14T11:35:33;9.98;;;2.20;;
48613;SDS011;34408;51.426;5.444;2023-03-14T11:38:07;11.80;;;2.22;;
48613;SDS011;34408;51.426;5.444;2023-03-14T11:40:47;10.45;;;2.10;;
48613;SDS011;34408;51.426;5.444;2023-03-14T11:43:18;10.63;;;2.40;;
48613;SDS011;34408;51.426;5.444;2023-03-14T11:45:54;11.37;;;2.03;;
48613;SDS011;34408;51.426;5.444;2023-03-14T11:48:32;10.23;;;2.10;;
48613;SDS011;34408;51.426;5.444;2023-03-14T11:51:08;12.10;;;2.03;;
48613;SDS011;34408;51.426;5.444;2023-03-14T11:53:44;10.20;;;2.42;;
48613;SDS011;34408;51.426;5.444;2023-03-14T11:56:18;10.10;;;2.40;;
48613;SDS011;34408;51.426;5.444;2023-03-14T11:58:55;12.18;;;2.40;;
48613;SDS011;34408;51.426;5.444;2023-03-14T12:01:29;11.40;;;2.08;;
48613;SDS011;34408;51.426;5.444;2023-03-14T12:04:11;6.25;;;1.88;;
48613;SDS011;34408;51.426;5.444;2023-03-14T12:06:47;13.75;;;2.30;;
48613;SDS011;34408;51.426;5.444;2023-03-14T12:09:16;10.27;;;1.98;;
48613;SDS011;34408;51.426;5.444;2023-03-14T12:11:47;9.40;;;2.97;;
48613;SDS011;34408;51.426;5.444;2023-03-14T12:14:20;11.70;;;2.45;;
48613;SDS011;34408;51.426;5.444;2023-03-14T12:16:52;13.68;;;2.90;;
48613;SDS011;34408;51.426;5.444;2023-03-14T12:19:29;15.00;;;2.85;;
48613;SDS011;34408;51.426;5.444;2023-03-14T12:22:06;12.52;;;2.50;;
48613;SDS011;34408;51.426;5.444;2023-03-14T12:24:44;14.57;;;2.70;;
48613;SDS011;34408;51.426;5.444;2023-03-14T12:30:23;14.27;;;3.20;;
48613;SDS011;34408;51.426;5.444;2023-03-14T12:35:50;20.52;;;3.75;;
48613;SDS011;34408;51.426;5.444;2023-03-14T12:38:23;15.48;;;2.75;;
48613;SDS011;34408;51.426;5.444;2023-03-14T12:43:27;19.40;;;2.55;;
48613;SDS011;34408;51.426;5.444;2023-03-14T12:46:15;19.55;;;2.63;;
48613;SDS011;34408;51.426;5.444;2023-03-14T12:48:48;16.15;;;3.10;;
48613;SDS011;34408;51.426;5.444;2023-03-14T12:51:19;16.35;;;3.25;;
48613;SDS011;34408;51.426;5.444;2023-03-14T12:54:04;16.13;;;3.42;;
48613;SDS011;34408;51.426;5.444;2023-03-14T12:56:45;21.65;;;3.10;;
48613;SDS011;34408;51.426;5.444;2023-03-14T12:59:30;16.05;;;3.45;;
48613;SDS011;34408;51.426;5.444;2023-03-14T13:02:00;14.95;;;3.70;;
48613;SDS011;34408;51.426;5.444;2023-03-14T13:04:31;19.52;;;3.53;;
48613;SDS011;34408;51.426;5.444;2023-03-14T13:07:10;20.33;;;3.58;;
48613;SDS011;34408;51.426;5.444;2023-03-14T13:12:28;21.58;;;3.60;;
48613;SDS011;34408;51.426;5.444;2023-03-14T13:15:02;17.65;;;3.80;;
48613;SDS011;34408;51.426;5.444;2023-03-14T13:17:41;12.10;;;3.08;;
48613;SDS011;34408;51.426;5.444;2023-03-14T13:20:12;25.50;;;3.33;;
48613;SDS011;34408;51.426;5.444;2023-03-14T13:22:47;12.65;;;2.83;;
48613;SDS011;34408;51.426;5.444;2023-03-14T13:25:16;16.65;;;3.38;;
48613;SDS011;34408;51.426;5.444;2023-03-14T13:27:44;20.08;;;4.13;;
48613;SDS011;34408;51.426;5.444;2023-03-14T13:30:16;9.63;;;2.17;;
48613;SDS011;34408;51.426;5.444;2023-03-14T13:32:47;11.75;;;2.45;;
48613;SDS011;34408;51.426;5.444;2023-03-14T13:35:17;12.60;;;3.28;;
48613;SDS011;34408;51.426;5.444;2023-03-14T13:37:48;9.35;;;2.72;;
48613;SDS011;34408;51.426;5.444;2023-03-14T13:40:33;18.13;;;2.60;;
48613;SDS011;34408;51.426;5.444;2023-03-14T13:43:03;17.25;;;2.90;;
48613;SDS011;34408;51.426;5.444;2023-03-14T13:45:43;10.88;;;2.38;;
48613;SDS011;34408;51.426;5.444;2023-03-14T13:48:22;8.52;;;2.10;;
48613;SDS011;34408;51.426;5.444;2023-03-14T13:50:55;16.88;;;2.35;;
48613;SDS011;34408;51.426;5.444;2023-03-14T13:53:28;14.82;;;2.85;;
48613;SDS011;34408;51.426;5.444;2023-03-14T13:55:56;10.18;;;2.20;;
48613;SDS011;34408;51.426;5.444;2023-03-14T13:58:28;9.23;;;1.85;;
48613;SDS011;34408;51.426;5.444;2023-03-14T14:00:58;11.50;;;2.53;;
48613;SDS011;34408;51.426;5.444;2023-03-14T14:03:30;7.35;;;1.52;;
48613;SDS011;34408;51.426;5.444;2023-03-14T14:05:59;8.45;;;2.10;;
48613;SDS011;34408;51.426;5.444;2023-03-14T14:08:28;9.52;;;2.45;;
48613;SDS011;34408;51.426;5.444;2023-03-14T14:10:58;10.98;;;2.17;;
48613;SDS011;34408;51.426;5.444;2023-03-14T14:13:28;13.70;;;2.22;;
48613;SDS011;34408;51.426;5.444;2023-03-14T14:15:59;13.02;;;2.20;;
48613;SDS011;34408;51.426;5.444;2023-03-14T14:18:30;8.88;;;1.92;;
48613;SDS011;34408;51.426;5.444;2023-03-14T14:21:00;12.95;;;2.10;;
48613;SDS011;34408;51.426;5.444;2023-03-14T14:23:31;15.95;;;2.83;;
48613;SDS011;34408;51.426;5.444;2023-03-14T14:25:59;11.77;;;2.25;;
48613;SDS011;34408;51.426;5.444;2023-03-14T14:28:27;11.88;;;2.08;;
48613;SDS011;34408;51.426;5.444;2023-03-14T14:31:04;8.38;;;2.22;;
48613;SDS011;34408;51.426;5.444;2023-03-14T14:33:44;10.43;;;2.10;;
48613;SDS011;34408;51.426;5.444;2023-03-14T14:36:17;6.15;;;1.70;;
48613;SDS011;34408;51.426;5.444;2023-03-14T14:38:53;9.52;;;2.38;;
48613;SDS011;34408;51.426;5.444;2023-03-14T14:41:26;11.85;;;2.13;;
48613;SDS011;34408;51.426;5.444;2023-03-14T14:43:56;11.18;;;1.83;;
48613;SDS011;34408;51.426;5.444;2023-03-14T14:46:25;11.05;;;2.03;;
48613;SDS011;34408;51.426;5.444;2023-03-14T14:48:55;5.72;;;1.50;;
48613;SDS011;34408;51.426;5.444;2023-03-14T14:51:25;8.20;;;1.85;;
48613;SDS011;34408;51.426;5.444;2023-03-14T14:54:09;7.57;;;1.90;;
48613;SDS011;34408;51.426;5.444;2023-03-14T14:56:39;7.25;;;2.00;;
48613;SDS011;34408;51.426;5.444;2023-03-14T14:59:17;13.98;;;2.28;;
48613;SDS011;34408;51.426;5.444;2023-03-14T15:01:48;11.32;;;2.33;;
48613;SDS011;34408;51.426;5.444;2023-03-14T15:04:17;7.80;;;2.50;;
48613;SDS011;34408;51.426;5.444;2023-03-14T15:06:45;14.38;;;2.30;;
48613;SDS011;34408;51.426;5.444;2023-03-14T15:09:17;6.60;;;1.95;;
48613;SDS011;34408;51.426;5.444;2023-03-14T15:11:46;11.75;;;1.80;;
48613;SDS011;34408;51.426;5.444;2023-03-14T15:14:14;10.68;;;2.05;;
48613;SDS011;34408;51.426;5.444;2023-03-14T15:16:42;11.00;;;1.95;;
48613;SDS011;34408;51.426;5.444;2023-03-14T15:19:12;9.52;;;1.92;;
48613;SDS011;34408;51.426;5.444;2023-03-14T15:21:50;7.43;;;1.70;;
48613;SDS011;34408;51.426;5.444;2023-03-14T15:24:20;8.70;;;2.47;;